Time;durP1;ratioP1;P1;durP2;ratioP2;P2;SDS_P1;SDS_P2;PMS_P1;PMS_P2;Temp;Humidity;BMP_temperature;BMP_pressure;BME280_temperature;BME280_humidity;BME280_pressure;Samples;Min_cycle;Max_cycle;Signal;HPM_P1;HPM_P2
2023/01/18 00:01:00;;;;;;;27.30;15.57;;;;;;;;;;5050544;28;20481;-42
2023/01/18 00:03:26;;;;;;;24.10;15.35;;;;;;;;;;5049652;28;20210;-42
2023/01/18 00:05:53;;;;;;;27.33;15.93;;;;;;;;;;5048740;28;20250;-42
2023/01/18 00:08:19;;;;;;;28.83;15.85;;;;;;;;;;5050525;28;20171;-42
2023/01/18 00:10:45;;;;;;;21.73;14.93;;;;;;;;;;5044661;28;20692;-42
2023/01/18 00:13:12;;;;;;;26.95;16.45;;;;;;;;;;5049975;28;20191;-42
2023/01/18 00:15:38;;;;;;;31.55;16.67;;;;;;;;;;5053502;28;20482;-42
2023/01/18 00:18:04;;;;;;;28.20;16.50;;;;;;;;;;5052263;28;20198;-41
2023/01/18 00:20:31;;;;;;;24.50;14.13;;;;;;;;;;5054254;28;20167;-42
2023/01/18 00:22:58;;;;;;;24.60;14.93;;;;;;;;;;5053651;28;20191;-42
2023/01/18 00:25:24;;;;;;;29.83;16.83;;;;;;;;;;5048460;28;20232;-42
2023/01/18 00:27:52;;;;;;;27.00;16.77;;;;;;;;;;5046028;28;20183;-41
2023/01/18 00:30:22;;;;;;;27.02;18.08;;;;;;;;;;5053011;28;20913;-42
2023/01/18 00:32:48;;;;;;;24.73;15.48;;;;;;;;;;5053612;28;20213;-42
2023/01/18 00:35:14;;;;;;;30.08;16.23;;;;;;;;;;5049648;28;20182;-42
2023/01/18 00:37:41;;;;;;;28.33;15.90;;;;;;;;;;5053825;28;20561;-42
2023/01/18 00:40:07;;;;;;;32.00;17.42;;;;;;;;;;5045577;28;20266;-42
2023/01/18 00:45:18;;;;;;;22.85;15.40;;;;;;;;;;5047619;28;20653;-42
2023/01/18 00:47:44;;;;;;;26.95;16.00;;;;;;;;;;5053486;28;20171;-43
2023/01/18 00:50:10;;;;;;;28.73;15.93;;;;;;;;;;5049373;28;20589;-42
2023/01/18 00:52:37;;;;;;;28.38;15.20;;;;;;;;;;5053249;28;20217;-42
2023/01/18 00:55:04;;;;;;;27.25;16.90;;;;;;;;;;5045641;28;20215;-42
2023/01/18 00:57:30;;;;;;;25.60;15.45;;;;;;;;;;5052513;28;20207;-42
2023/01/18 00:59:56;;;;;;;25.63;17.33;;;;;;;;;;5053335;28;20171;-42
2023/01/18 01:02:22;;;;;;;25.75;17.60;;;;;;;;;;5051690;28;20166;-42
2023/01/18 01:07:33;;;;;;;27.58;16.00;;;;;;;;;;5048890;28;20663;-42
2023/01/18 01:09:59;;;;;;;25.77;17.50;;;;;;;;;;5052312;28;20183;-43
2023/01/18 01:26:10;;;;;;;34.20;16.80;;;;;;;;;;5040385;28;20571;-42
2023/01/18 01:28:43;;;;;;;29.00;16.15;;;;;;;;;;5047473;28;20173;-42
2023/01/18 01:31:10;;;;;;;34.05;16.70;;;;;;;;;;5052911;28;20179;-42
2023/01/18 01:33:37;;;;;;;32.63;17.17;;;;;;;;;;5049877;28;20686;-42
2023/01/18 01:36:05;;;;;;;24.65;16.45;;;;;;;;;;5052324;28;20225;-42
2023/01/18 01:38:31;;;;;;;34.80;17.52;;;;;;;;;;5052538;28;20175;-43
2023/01/18 01:40:57;;;;;;;30.35;18.35;;;;;;;;;;5052770;28;20590;-42
2023/01/18 01:43:40;;;;;;;31.97;19.37;;;;;;;;;;5048007;28;20274;-42
2023/01/18 01:46:13;;;;;;;30.80;18.42;;;;;;;;;;5052739;28;20402;-42
2023/01/18 01:48:39;;;;;;;30.40;16.73;;;;;;;;;;5052585;28;20179;-42
2023/01/18 01:51:05;;;;;;;31.30;18.20;;;;;;;;;;5052649;28;20186;-42
2023/01/18 01:53:31;;;;;;;33.40;17.07;;;;;;;;;;5049290;28;20461;-42
2023/01/18 01:55:56;;;;;;;30.60;17.80;;;;;;;;;;5052001;28;20426;-42
2023/01/18 01:58:25;;;;;;;24.93;15.13;;;;;;;;;;5050277;28;20890;-42
2023/01/18 02:00:53;;;;;;;31.55;18.00;;;;;;;;;;5052002;28;20402;-43
2023/01/18 02:03:21;;;;;;;24.27;14.75;;;;;;;;;;5050045;28;20183;-43
2023/01/18 02:05:50;;;;;;;28.63;15.95;;;;;;;;;;5051368;28;20277;-42
2023/01/18 02:08:23;;;;;;;31.05;17.77;;;;;;;;;;5049221;28;20701;-42
2023/01/18 02:10:50;;;;;;;24.10;17.02;;;;;;;;;;5052098;28;20186;-42
2023/01/18 02:13:16;;;;;;;36.40;16.60;;;;;;;;;;5045726;28;20269;-42
2023/01/18 02:15:42;;;;;;;25.52;16.90;;;;;;;;;;5051791;28;20190;-42
2023/01/18 02:18:30;;;;;;;24.30;16.00;;;;;;;;;;5051745;28;20206;-42
2023/01/18 02:21:10;;;;;;;35.00;17.48;;;;;;;;;;5050640;28;20445;-42
2023/01/18 02:23:45;;;;;;;22.65;13.82;;;;;;;;;;5051510;28;20186;-42
2023/01/18 02:26:11;;;;;;;27.25;14.38;;;;;;;;;;5044195;28;20213;-43
2023/01/18 02:28:37;;;;;;;22.83;14.30;;;;;;;;;;5051553;28;20538;-42
2023/01/18 02:31:12;;;;;;;23.60;15.00;;;;;;;;;;5044423;28;20437;-42
2023/01/18 02:33:55;;;;;;;25.67;15.00;;;;;;;;;;5050748;28;20198;-42
2023/01/18 02:36:37;;;;;;;29.35;14.57;;;;;;;;;;5047915;28;20194;-42
2023/01/18 02:39:05;;;;;;;21.30;13.00;;;;;;;;;;5047275;28;20174;-43
2023/01/18 02:47:08;;;;;;;28.73;16.60;;;;;;;;;;5044057;28;20867;-42
2023/01/18 02:49:34;;;;;;;30.17;15.50;;;;;;;;;;5050047;28;20240;-42
2023/01/18 02:52:05;;;;;;;22.07;15.53;;;;;;;;;;5051171;28;20187;-42
2023/01/18 02:54:32;;;;;;;29.40;15.63;;;;;;;;;;5047108;28;20456;-42
2023/01/18 02:56:59;;;;;;;26.73;16.58;;;;;;;;;;5049928;28;20674;-42
2023/01/18 02:59:29;;;;;;;24.67;14.30;;;;;;;;;;5051322;28;20175;-42
2023/01/18 03:01:57;;;;;;;23.77;13.57;;;;;;;;;;5051112;28;20266;-42
2023/01/18 03:04:28;;;;;;;24.73;15.20;;;;;;;;;;5048664;28;20274;-42
2023/01/18 03:06:58;;;;;;;29.65;16.63;;;;;;;;;;5051380;28;20178;-42
2023/01/18 03:09:25;;;;;;;24.60;14.90;;;;;;;;;;5045961;28;20175;-42
2023/01/18 03:11:57;;;;;;;22.42;14.85;;;;;;;;;;5051236;28;20167;-42
2023/01/18 03:14:35;;;;;;;28.77;14.73;;;;;;;;;;5050625;28;20221;-42
2023/01/18 03:17:05;;;;;;;27.08;14.70;;;;;;;;;;5048653;28;20708;-43
2023/01/18 03:25:17;;;;;;;32.67;16.55;;;;;;;;;;5043994;28;20185;-42
2023/01/18 03:36:02;;;;;;;28.50;15.48;;;;;;;;;;5049988;28;20276;-42
2023/01/18 03:38:29;;;;;;;31.63;15.20;;;;;;;;;;5045883;28;20557;-42
2023/01/18 03:40:56;;;;;;;28.85;14.75;;;;;;;;;;5050376;28;20167;-42
2023/01/18 03:43:24;;;;;;;28.83;15.75;;;;;;;;;;5050965;28;20201;-42
2023/01/18 03:45:52;;;;;;;26.08;16.13;;;;;;;;;;5050552;28;20638;-42
2023/01/18 03:48:18;;;;;;;33.38;16.38;;;;;;;;;;5047365;28;20179;-42
2023/01/18 03:50:50;;;;;;;24.17;15.50;;;;;;;;;;5054076;28;20734;-43
2023/01/18 03:53:28;;;;;;;27.75;17.33;;;;;;;;;;5051004;28;20231;-42
2023/01/18 03:55:58;;;;;;;30.95;17.15;;;;;;;;;;5052536;28;20669;-43
2023/01/18 03:58:30;;;;;;;25.58;15.52;;;;;;;;;;5054605;28;20186;-42
2023/01/18 04:00:56;;;;;;;33.00;16.48;;;;;;;;;;5051042;28;20174;-42
2023/01/18 04:03:22;;;;;;;24.30;15.65;;;;;;;;;;5049494;28;20195;-42
2023/01/18 04:05:48;;;;;;;28.63;16.53;;;;;;;;;;5054206;28;20182;-42
2023/01/18 04:08:15;;;;;;;27.50;17.55;;;;;;;;;;5040367;28;20393;-42
2023/01/18 04:10:41;;;;;;;31.73;15.80;;;;;;;;;;5053977;28;20178;-42
2023/01/18 04:13:07;;;;;;;34.30;16.00;;;;;;;;;;5044311;28;20190;-42
2023/01/18 04:15:33;;;;;;;22.83;14.93;;;;;;;;;;5054243;28;20394;-42
2023/01/18 04:17:58;;;;;;;30.07;16.07;;;;;;;;;;5054092;28;20500;-43
2023/01/18 04:20:24;;;;;;;23.37;15.53;;;;;;;;;;5054135;28;20463;-42
2023/01/18 04:22:51;;;;;;;28.03;15.00;;;;;;;;;;5047208;28;20437;-42
2023/01/18 04:25:18;;;;;;;30.83;15.88;;;;;;;;;;5053757;28;20406;-42
2023/01/18 04:27:44;;;;;;;28.52;15.40;;;;;;;;;;5053864;28;20175;-43
2023/01/18 04:30:10;;;;;;;31.35;15.50;;;;;;;;;;5050624;28;20179;-42
2023/01/18 04:32:36;;;;;;;32.72;16.15;;;;;;;;;;5053709;28;20205;-43
2023/01/18 04:35:02;;;;;;;27.97;14.97;;;;;;;;;;5052679;28;20261;-42
2023/01/18 04:37:29;;;;;;;26.00;15.70;;;;;;;;;;5048539;28;20468;-42
2023/01/18 04:39:55;;;;;;;23.10;13.52;;;;;;;;;;5053573;28;20425;-42
2023/01/18 04:42:22;;;;;;;25.33;13.73;;;;;;;;;;5053368;28;20190;-42
2023/01/18 04:44:48;;;;;;;31.85;16.92;;;;;;;;;;5050645;28;20548;-42
2023/01/18 04:47:14;;;;;;;31.53;15.93;;;;;;;;;;5053853;28;20170;-42
2023/01/18 04:49:40;;;;;;;25.57;15.13;;;;;;;;;;5049935;28;20740;-42
2023/01/18 04:52:06;;;;;;;26.10;16.17;;;;;;;;;;5053437;28;20496;-42
2023/01/18 04:54:32;;;;;;;30.85;16.00;;;;;;;;;;5052948;28;20417;-42
2023/01/18 04:56:58;;;;;;;26.42;15.35;;;;;;;;;;5052545;28;20243;-42
2023/01/18 04:59:24;;;;;;;52.63;18.97;;;;;;;;;;5053252;28;20262;-43
2023/01/18 05:01:50;;;;;;;32.33;15.70;;;;;;;;;;5049178;28;20405;-43
2023/01/18 05:04:16;;;;;;;24.47;13.97;;;;;;;;;;5053093;28;20437;-43
2023/01/18 05:06:42;;;;;;;28.60;17.80;;;;;;;;;;5045335;28;20442;-43
2023/01/18 05:09:11;;;;;;;26.13;15.90;;;;;;;;;;5051595;28;20650;-42
2023/01/18 05:11:37;;;;;;;24.00;14.50;;;;;;;;;;5053355;28;20532;-42
2023/01/18 05:14:03;;;;;;;33.10;18.07;;;;;;;;;;5053207;28;20183;-42
2023/01/18 05:16:29;;;;;;;31.93;16.80;;;;;;;;;;5049700;28;20964;-42
2023/01/18 05:18:55;;;;;;;27.00;16.52;;;;;;;;;;5053001;28;20817;-42
2023/01/18 05:21:21;;;;;;;24.87;14.10;;;;;;;;;;5045272;28;20240;-43
2023/01/18 05:23:47;;;;;;;26.13;17.60;;;;;;;;;;5051507;28;20425;-43
2023/01/18 05:26:18;;;;;;;28.83;14.73;;;;;;;;;;5052721;28;20441;-43
2023/01/18 05:28:44;;;;;;;23.17;15.52;;;;;;;;;;5048476;28;20411;-43
2023/01/18 05:31:10;;;;;;;30.27;16.30;;;;;;;;;;5052752;28;20250;-43
2023/01/18 05:33:36;;;;;;;28.73;15.80;;;;;;;;;;5052608;28;20230;-43
2023/01/18 05:36:02;;;;;;;20.10;13.60;;;;;;;;;;5044881;28;20285;-43
2023/01/18 05:38:28;;;;;;;21.13;13.63;;;;;;;;;;5052289;28;20909;-42
2023/01/18 05:40:54;;;;;;;23.40;15.25;;;;;;;;;;5047752;28;20228;-43
2023/01/18 05:43:23;;;;;;;25.80;15.40;;;;;;;;;;5052490;28;20285;-43
2023/01/18 05:45:49;;;;;;;25.45;16.58;;;;;;;;;;5051370;28;20181;-42
2023/01/18 05:48:16;;;;;;;30.70;15.30;;;;;;;;;;5045733;28;20167;-43
2023/01/18 05:50:43;;;;;;;26.85;16.38;;;;;;;;;;5050431;28;20981;-43
2023/01/18 05:53:09;;;;;;;27.75;16.50;;;;;;;;;;5051757;28;20194;-43
2023/01/18 05:55:35;;;;;;;33.10;17.57;;;;;;;;;;5048291;28;20562;-43
2023/01/18 05:58:01;;;;;;;30.17;17.80;;;;;;;;;;5045449;28;20458;-43
2023/01/18 06:00:27;;;;;;;33.23;18.07;;;;;;;;;;5051539;28;20416;-42
2023/01/18 06:02:53;;;;;;;39.83;17.90;;;;;;;;;;5051487;28;20453;-43
2023/01/18 06:05:23;;;;;;;23.70;16.95;;;;;;;;;;5051463;28;20600;-42
2023/01/18 06:07:49;;;;;;;29.90;17.55;;;;;;;;;;5051748;28;20163;-43
2023/01/18 06:10:15;;;;;;;30.25;18.75;;;;;;;;;;5046910;28;20230;-43
2023/01/18 06:12:41;;;;;;;35.17;18.83;;;;;;;;;;5050438;28;20260;-42
2023/01/18 06:15:08;;;;;;;31.73;18.15;;;;;;;;;;5043481;28;20225;-43
2023/01/18 06:17:34;;;;;;;32.13;18.52;;;;;;;;;;5049742;28;20194;-43
2023/01/18 06:20:00;;;;;;;29.17;17.65;;;;;;;;;;5051100;28;20175;-43
2023/01/18 06:22:26;;;;;;;32.33;18.60;;;;;;;;;;5048263;28;20167;-43
2023/01/18 06:24:52;;;;;;;33.50;18.23;;;;;;;;;;5049550;28;20406;-43
2023/01/18 06:27:18;;;;;;;40.67;20.03;;;;;;;;;;5050816;28;20410;-43
2023/01/18 06:29:44;;;;;;;32.27;17.67;;;;;;;;;;5051227;28;20421;-43
2023/01/18 06:32:10;;;;;;;34.60;18.70;;;;;;;;;;5050695;28;20897;-43
2023/01/18 06:34:36;;;;;;;45.35;22.48;;;;;;;;;;5047238;28;20420;-43
2023/01/18 06:37:02;;;;;;;30.77;19.67;;;;;;;;;;5051024;28;20541;-43
2023/01/18 06:39:28;;;;;;;38.03;19.05;;;;;;;;;;5046607;28;20410;-43
2023/01/18 06:41:54;;;;;;;36.83;21.30;;;;;;;;;;5049268;28;20167;-42
2023/01/18 06:44:21;;;;;;;30.67;18.13;;;;;;;;;;5048323;28;20559;-43
2023/01/18 06:46:47;;;;;;;34.17;18.83;;;;;;;;;;5041136;28;20418;-42
2023/01/18 06:49:13;;;;;;;36.03;17.98;;;;;;;;;;5050807;28;20178;-43
2023/01/18 06:51:39;;;;;;;34.92;19.58;;;;;;;;;;5050479;28;20673;-43
2023/01/18 06:54:06;;;;;;;41.47;17.35;;;;;;;;;;5050552;28;20225;-42
2023/01/18 06:56:31;;;;;;;27.25;17.98;;;;;;;;;;5050732;28;20260;-42
2023/01/18 06:58:59;;;;;;;31.63;18.13;;;;;;;;;;5051204;28;20183;-42
2023/01/18 07:01:25;;;;;;;31.38;18.30;;;;;;;;;;5050546;28;20412;-42
2023/01/18 07:03:51;;;;;;;32.45;19.08;;;;;;;;;;5048858;28;20187;-43
2023/01/18 07:06:17;;;;;;;29.20;16.30;;;;;;;;;;5051063;28;20186;-43
2023/01/18 07:08:44;;;;;;;30.77;17.67;;;;;;;;;;5045388;28;20175;-42
2023/01/18 07:11:11;;;;;;;39.95;20.25;;;;;;;;;;5050971;28;20466;-43
2023/01/18 07:13:42;;;;;;;34.58;19.25;;;;;;;;;;5051086;28;20309;-43
2023/01/18 07:16:12;;;;;;;32.80;18.67;;;;;;;;;;5042790;28;20220;-43
2023/01/18 07:18:42;;;;;;;37.25;19.98;;;;;;;;;;5051230;28;20178;-42
2023/01/18 07:21:09;;;;;;;34.13;18.90;;;;;;;;;;5042992;28;20171;-42
2023/01/18 07:23:38;;;;;;;38.50;18.40;;;;;;;;;;5050890;28;20208;-42
2023/01/18 07:26:04;;;;;;;31.08;18.10;;;;;;;;;;5046997;28;20249;-43
2023/01/18 07:28:31;;;;;;;37.10;19.30;;;;;;;;;;5053200;28;20703;-42
2023/01/18 07:30:57;;;;;;;34.65;19.38;;;;;;;;;;5054496;28;20189;-42
2023/01/18 07:33:23;;;;;;;35.38;19.27;;;;;;;;;;5050534;28;20380;-43
2023/01/18 07:35:51;;;;;;;33.90;19.13;;;;;;;;;;5054618;28;20270;-42
2023/01/18 07:38:18;;;;;;;42.22;20.58;;;;;;;;;;5049840;28;20199;-42
2023/01/18 07:40:45;;;;;;;40.55;20.00;;;;;;;;;;5050716;28;20167;-42
2023/01/18 07:43:11;;;;;;;38.05;18.92;;;;;;;;;;5054380;28;20178;-43
2023/01/18 07:45:37;;;;;;;35.90;19.60;;;;;;;;;;5054893;28;20197;-43
2023/01/18 07:48:03;;;;;;;30.25;19.95;;;;;;;;;;5050388;28;20405;-42
2023/01/18 07:50:29;;;;;;;29.55;17.58;;;;;;;;;;5055001;28;20261;-42
2023/01/18 07:52:55;;;;;;;34.73;19.87;;;;;;;;;;5047026;28;20287;-42
2023/01/18 07:55:21;;;;;;;33.03;19.10;;;;;;;;;;5054529;28;20432;-43
2023/01/18 07:57:47;;;;;;;34.03;20.83;;;;;;;;;;5051440;28;20199;-42
2023/01/18 08:00:16;;;;;;;30.10;17.80;;;;;;;;;;5054695;28;20471;-43
2023/01/18 08:02:42;;;;;;;34.78;19.52;;;;;;;;;;5054015;28;20187;-43
2023/01/18 08:05:09;;;;;;;30.83;19.33;;;;;;;;;;5049035;28;20170;-42
2023/01/18 08:07:35;;;;;;;37.95;18.45;;;;;;;;;;5049500;28;20425;-42
2023/01/18 08:10:01;;;;;;;30.88;19.17;;;;;;;;;;5053939;28;20175;-43
2023/01/18 08:12:27;;;;;;;38.20;22.98;;;;;;;;;;5053758;28;20254;-42
2023/01/18 08:14:53;;;;;;;31.90;19.48;;;;;;;;;;5051703;28;20178;-42
2023/01/18 08:17:19;;;;;;;36.50;22.17;;;;;;;;;;5054244;28;20587;-43
2023/01/18 08:19:45;;;;;;;44.50;23.00;;;;;;;;;;5054183;28;20410;-42
2023/01/18 08:22:11;;;;;;;33.53;20.67;;;;;;;;;;5049383;28;20416;-42
2023/01/18 08:24:37;;;;;;;34.43;19.70;;;;;;;;;;5054204;28;20171;-43
2023/01/18 08:27:03;;;;;;;32.20;20.13;;;;;;;;;;5053747;28;20892;-42
2023/01/18 08:29:29;;;;;;;36.55;21.40;;;;;;;;;;5054132;28;20493;-43
2023/01/18 08:31:55;;;;;;;44.70;21.73;;;;;;;;;;5053808;28;20292;-42
2023/01/18 08:34:21;;;;;;;33.65;20.48;;;;;;;;;;5050900;28;20425;-42
2023/01/18 08:36:49;;;;;;;40.30;21.10;;;;;;;;;;5053300;28;20194;-42
2023/01/18 08:39:15;;;;;;;30.35;17.65;;;;;;;;;;5047893;28;20163;-43
2023/01/18 08:41:41;;;;;;;30.13;18.65;;;;;;;;;;5052333;28;20181;-42
2023/01/18 08:44:07;;;;;;;34.10;20.43;;;;;;;;;;5053539;28;20194;-42
2023/01/18 08:46:35;;;;;;;34.70;19.23;;;;;;;;;;5051841;28;20410;-43
2023/01/18 08:49:04;;;;;;;31.02;18.33;;;;;;;;;;5053140;28;20413;-43
2023/01/18 08:51:30;;;;;;;30.02;17.23;;;;;;;;;;5053562;28;20194;-43
2023/01/18 08:53:57;;;;;;;33.58;18.33;;;;;;;;;;5047086;28;20199;-43
2023/01/18 08:56:23;;;;;;;31.92;19.85;;;;;;;;;;5053228;28;20193;-42
2023/01/18 08:58:50;;;;;;;31.48;18.15;;;;;;;;;;5053497;28;20175;-42
2023/01/18 09:01:17;;;;;;;33.67;20.50;;;;;;;;;;5050863;28;20171;-43
2023/01/18 09:03:43;;;;;;;31.17;18.98;;;;;;;;;;5048746;28;20196;-43
2023/01/18 09:06:09;;;;;;;25.48;17.42;;;;;;;;;;5053340;28;20164;-43
2023/01/18 09:08:36;;;;;;;31.60;19.30;;;;;;;;;;5053258;28;20171;-43
2023/01/18 09:11:03;;;;;;;32.25;20.38;;;;;;;;;;5047065;28;20179;-43
2023/01/18 09:13:29;;;;;;;27.60;17.30;;;;;;;;;;5051857;28;20628;-43
2023/01/18 09:16:02;;;;;;;28.02;16.80;;;;;;;;;;5053207;28;20670;-43
2023/01/18 09:18:29;;;;;;;25.45;17.10;;;;;;;;;;5048880;28;20604;-43
2023/01/18 09:20:55;;;;;;;29.42;18.02;;;;;;;;;;5053193;28;20545;-43
2023/01/18 09:23:21;;;;;;;29.02;18.13;;;;;;;;;;5047803;28;20199;-44
2023/01/18 09:25:47;;;;;;;26.05;15.70;;;;;;;;;;5049533;28;20171;-44
2023/01/18 09:28:15;;;;;;;25.20;16.05;;;;;;;;;;5053062;28;20183;-44
2023/01/18 09:30:41;;;;;;;28.17;17.42;;;;;;;;;;5052294;28;20181;-45
2023/01/18 09:33:07;;;;;;;26.30;16.33;;;;;;;;;;5047998;28;20202;-45
2023/01/18 09:35:33;;;;;;;25.80;16.53;;;;;;;;;;5051426;28;20523;-45
2023/01/18 09:37:59;;;;;;;28.17;16.70;;;;;;;;;;5051869;28;20464;-44
2023/01/18 09:40:35;;;;;;;25.23;15.90;;;;;;;;;;5052712;28;20257;-45
2023/01/18 09:43:02;;;;;;;30.10;16.17;;;;;;;;;;5049550;28;20432;-45
2023/01/18 09:45:30;;;;;;;29.45;16.92;;;;;;;;;;5052764;28;20568;-44
2023/01/18 09:48:00;;;;;;;28.50;16.27;;;;;;;;;;5051729;28;20185;-44
2023/01/18 09:50:26;;;;;;;26.33;18.00;;;;;;;;;;5050220;28;20224;-45
2023/01/18 09:53:04;;;;;;;28.67;17.53;;;;;;;;;;5052160;28;20273;-44
2023/01/18 09:55:39;;;;;;;28.27;16.10;;;;;;;;;;5052480;28;20428;-44
2023/01/18 09:58:11;;;;;;;24.73;15.93;;;;;;;;;;5049661;28;20218;-44
2023/01/18 10:00:41;;;;;;;19.55;15.05;;;;;;;;;;5048298;28;20217;-44
2023/01/18 10:03:12;;;;;;;21.50;15.85;;;;;;;;;;5052199;28;20195;-44
2023/01/18 10:05:41;;;;;;;24.98;13.63;;;;;;;;;;5052496;28;20172;-45
2023/01/18 10:08:13;;;;;;;21.38;13.68;;;;;;;;;;5048204;28;20179;-44
2023/01/18 10:10:53;;;;;;;18.98;13.98;;;;;;;;;;5049169;28;20186;-45
2023/01/18 10:13:22;;;;;;;20.48;15.00;;;;;;;;;;5038610;28;20567;-45
2023/01/18 10:15:48;;;;;;;19.73;14.32;;;;;;;;;;5033121;28;20551;-45
2023/01/18 10:18:16;;;;;;;24.95;14.27;;;;;;;;;;5040423;28;20581;-45
2023/01/18 10:20:45;;;;;;;17.60;13.93;;;;;;;;;;5035768;28;20634;-45
2023/01/18 10:23:18;;;;;;;20.08;14.68;;;;;;;;;;5044169;28;20759;-45
2023/01/18 10:25:54;;;;;;;20.33;14.82;;;;;;;;;;5051246;28;20217;-45
2023/01/18 10:28:23;;;;;;;20.05;14.50;;;;;;;;;;5051412;28;20243;-44
2023/01/18 10:31:02;;;;;;;22.50;14.52;;;;;;;;;;5051158;28;20626;-45
2023/01/18 10:33:31;;;;;;;21.15;14.77;;;;;;;;;;5051142;28;20206;-44
2023/01/18 10:36:00;;;;;;;21.15;15.45;;;;;;;;;;5050929;28;20182;-44
2023/01/18 10:38:27;;;;;;;18.70;13.65;;;;;;;;;;5051095;28;20207;-45
2023/01/18 10:40:55;;;;;;;19.40;12.55;;;;;;;;;;5050999;28;20179;-44
2023/01/18 10:43:23;;;;;;;21.60;13.20;;;;;;;;;;5051006;28;20666;-45
2023/01/18 10:45:52;;;;;;;20.27;13.77;;;;;;;;;;5050834;28;20225;-45
2023/01/18 10:48:17;;;;;;;18.37;12.63;;;;;;;;;;5051155;28;20181;-45
2023/01/18 10:50:46;;;;;;;15.70;12.40;;;;;;;;;;5051475;28;20406;-45
2023/01/18 10:53:21;;;;;;;18.57;12.50;;;;;;;;;;5050488;28;20465;-45
2023/01/18 10:55:55;;;;;;;19.77;13.37;;;;;;;;;;5050610;28;20435;-45
2023/01/18 10:58:32;;;;;;;22.80;11.83;;;;;;;;;;5048822;28;20459;-45
2023/01/18 11:00:59;;;;;;;17.93;12.30;;;;;;;;;;5037986;28;20923;-45
2023/01/18 11:03:26;;;;;;;20.50;13.30;;;;;;;;;;5033788;28;20481;-45
2023/01/18 11:05:52;;;;;;;19.40;13.27;;;;;;;;;;5031028;28;20405;-46
2023/01/18 11:08:31;;;;;;;17.73;12.40;;;;;;;;;;5038426;28;20922;-45
2023/01/18 11:10:57;;;;;;;15.77;12.87;;;;;;;;;;5030320;28;20428;-45
2023/01/18 11:13:24;;;;;;;23.43;12.37;;;;;;;;;;5042752;28;20490;-45
2023/01/18 11:16:12;;;;;;;20.03;13.47;;;;;;;;;;5030412;28;21086;-45
2023/01/18 11:18:39;;;;;;;24.33;12.50;;;;;;;;;;5040907;28;21079;-45
2023/01/18 11:21:08;;;;;;;15.00;12.57;;;;;;;;;;5050297;28;20425;-45
2023/01/18 11:23:35;;;;;;;15.40;12.57;;;;;;;;;;5050091;28;20429;-45
2023/01/18 11:26:14;;;;;;;22.57;14.40;;;;;;;;;;5050495;28;20425;-45
2023/01/18 11:29:00;;;;;;;12.63;11.30;;;;;;;;;;5050579;28;20496;-45
2023/01/18 11:31:28;;;;;;;17.27;11.80;;;;;;;;;;5049042;28;20412;-45
2023/01/18 11:33:56;;;;;;;18.37;11.93;;;;;;;;;;5049724;28;20437;-45
2023/01/18 11:36:36;;;;;;;15.20;12.13;;;;;;;;;;5050172;28;20417;-45
2023/01/18 11:39:21;;;;;;;11.87;10.57;;;;;;;;;;5050132;28;20417;-45
2023/01/18 11:41:50;;;;;;;16.37;10.67;;;;;;;;;;5050193;28;20420;-46
2023/01/18 11:44:16;;;;;;;16.80;11.30;;;;;;;;;;5049959;28;20424;-45
2023/01/18 11:46:43;;;;;;;17.20;11.40;;;;;;;;;;5050201;28;20398;-45
2023/01/18 11:49:21;;;;;;;15.20;9.97;;;;;;;;;;5049358;28;20931;-45
2023/01/18 11:52:04;;;;;;;13.83;9.83;;;;;;;;;;5049968;28;20464;-45
2023/01/18 11:54:33;;;;;;;12.70;10.63;;;;;;;;;;5050058;28;20431;-45
2023/01/18 11:57:01;;;;;;;17.30;11.00;;;;;;;;;;5046625;28;20910;-45
2023/01/18 11:59:28;;;;;;;12.60;10.00;;;;;;;;;;5050280;28;20775;-45
2023/01/18 12:02:05;;;;;;;12.10;9.87;;;;;;;;;;5044737;28;20406;-45
2023/01/18 12:04:40;;;;;;;14.43;10.07;;;;;;;;;;5049973;28;21088;-45
2023/01/18 12:07:29;;;;;;;11.93;9.80;;;;;;;;;;5048515;28;20422;-46
2023/01/18 12:09:56;;;;;;;10.43;7.77;;;;;;;;;;5039151;28;20472;-45
2023/01/18 12:12:30;;;;;;;10.60;8.50;;;;;;;;;;5052472;28;20414;-45
2023/01/18 12:15:14;;;;;;;12.87;8.97;;;;;;;;;;5050268;28;20420;-45
2023/01/18 12:17:43;;;;;;;10.63;8.50;;;;;;;;;;5042584;28;20523;-45
2023/01/18 12:20:15;;;;;;;12.20;9.30;;;;;;;;;;5044559;28;20422;-44
2023/01/18 12:22:59;;;;;;;20.70;9.70;;;;;;;;;;5049430;28;20848;-45
2023/01/18 12:25:28;;;;;;;15.90;8.40;;;;;;;;;;5053640;28;20460;-45
2023/01/18 12:27:58;;;;;;;11.90;8.00;;;;;;;;;;5053387;28;20508;-45
2023/01/18 12:30:35;;;;;;;15.73;9.17;;;;;;;;;;5050952;28;20408;-45
2023/01/18 12:33:30;;;;;;;13.30;9.77;;;;;;;;;;5051629;28;20493;-45
2023/01/18 12:36:13;;;;;;;14.93;9.10;;;;;;;;;;5052429;28;20504;-45
2023/01/18 12:38:44;;;;;;;12.50;8.37;;;;;;;;;;5050588;28;20465;-45
2023/01/18 12:41:13;;;;;;;14.17;8.60;;;;;;;;;;5052170;28;20410;-44
2023/01/18 12:43:57;;;;;;;13.90;9.37;;;;;;;;;;5053218;28;20452;-45
2023/01/18 12:46:28;;;;;;;9.70;7.80;;;;;;;;;;5051354;28;20404;-44
2023/01/18 12:49:00;;;;;;;13.63;8.27;;;;;;;;;;5051547;28;20434;-45
2023/01/18 12:51:29;;;;;;;12.60;9.60;;;;;;;;;;5053550;28;20416;-45
2023/01/18 12:54:13;;;;;;;11.10;8.90;;;;;;;;;;5051605;28;20436;-45
2023/01/18 12:56:40;;;;;;;15.10;9.10;;;;;;;;;;5052514;28;20500;-45
2023/01/18 12:59:19;;;;;;;12.30;8.47;;;;;;;;;;5050500;28;20421;-44
2023/01/18 13:01:50;;;;;;;12.87;9.80;;;;;;;;;;5046550;28;20409;-45
2023/01/18 13:04:36;;;;;;;13.93;8.67;;;;;;;;;;5053091;28;20460;-44
2023/01/18 13:07:06;;;;;;;10.80;7.90;;;;;;;;;;5053022;28;20413;-45
2023/01/18 13:09:35;;;;;;;14.30;8.37;;;;;;;;;;5049955;28;20409;-45
2023/01/18 13:12:03;;;;;;;10.33;7.33;;;;;;;;;;5052634;28;21036;-44
2023/01/18 13:14:32;;;;;;;10.27;7.97;;;;;;;;;;5047576;28;20545;-44
2023/01/18 13:17:01;;;;;;;10.57;8.20;;;;;;;;;;5051241;28;20459;-45
2023/01/18 13:19:53;;;;;;;12.10;7.57;;;;;;;;;;5052265;28;20715;-44
2023/01/18 13:22:19;;;;;;;8.97;6.73;;;;;;;;;;5045885;28;20397;-45
2023/01/18 13:24:45;;;;;;;12.37;7.77;;;;;;;;;;5051884;28;20888;-45
2023/01/18 13:27:16;;;;;;;11.77;7.67;;;;;;;;;;5049913;28;20424;-44
2023/01/18 13:29:42;;;;;;;10.40;6.70;;;;;;;;;;5047463;28;20499;-45
2023/01/18 13:32:29;;;;;;;7.63;6.30;;;;;;;;;;5052053;28;20501;-45
2023/01/18 13:34:56;;;;;;;11.30;6.70;;;;;;;;;;5050458;28;20417;-44
2023/01/18 13:37:49;;;;;;;9.13;6.67;;;;;;;;;;5052217;28;20614;-44
2023/01/18 13:40:33;;;;;;;8.80;6.67;;;;;;;;;;5041129;28;20449;-44
2023/01/18 13:42:59;;;;;;;8.03;6.33;;;;;;;;;;5049982;28;20922;-45
2023/01/18 13:45:27;;;;;;;10.77;6.97;;;;;;;;;;5051426;28;20420;-45
2023/01/18 13:47:54;;;;;;;11.80;6.80;;;;;;;;;;5052336;28;20412;-45
2023/01/18 13:50:38;;;;;;;9.47;6.73;;;;;;;;;;5052019;28;20408;-44
2023/01/18 13:53:13;;;;;;;8.60;6.70;;;;;;;;;;5051494;28;20916;-44
2023/01/18 13:55:59;;;;;;;9.00;7.67;;;;;;;;;;5048069;28;20431;-44
2023/01/18 13:58:32;;;;;;;8.60;6.90;;;;;;;;;;5035570;28;20472;-45
2023/01/18 14:01:02;;;;;;;10.30;7.27;;;;;;;;;;5049921;28;20436;-45
2023/01/18 14:03:33;;;;;;;9.40;6.23;;;;;;;;;;5037654;28;20487;-45
2023/01/18 14:06:03;;;;;;;8.17;7.37;;;;;;;;;;5036341;28;20521;-45
2023/01/18 14:08:33;;;;;;;11.00;6.93;;;;;;;;;;5034356;28;20764;-45
2023/01/18 14:11:04;;;;;;;8.53;6.67;;;;;;;;;;5041856;28;20426;-45
2023/01/18 14:13:47;;;;;;;9.23;7.20;;;;;;;;;;5034115;28;20428;-45
2023/01/18 14:16:17;;;;;;;9.37;7.20;;;;;;;;;;5044723;28;20891;-45
2023/01/18 14:18:51;;;;;;;7.67;6.33;;;;;;;;;;5031728;28;20466;-44
2023/01/18 14:21:37;;;;;;;12.30;7.50;;;;;;;;;;5030778;28;20457;-44
2023/01/18 14:24:06;;;;;;;7.73;6.90;;;;;;;;;;5037183;28;20444;-45
2023/01/18 14:26:34;;;;;;;12.20;7.70;;;;;;;;;;5031745;28;21112;-46
2023/01/18 14:29:06;;;;;;;11.43;8.10;;;;;;;;;;5037593;28;20421;-45
2023/01/18 14:31:34;;;;;;;12.93;8.33;;;;;;;;;;5034633;28;20409;-44
2023/01/18 14:34:18;;;;;;;10.57;7.30;;;;;;;;;;5036730;28;20436;-44
2023/01/18 14:36:44;;;;;;;9.40;8.40;;;;;;;;;;5037711;28;20965;-45
2023/01/18 14:39:16;;;;;;;10.03;7.53;;;;;;;;;;5038476;28;20422;-44
2023/01/18 14:41:43;;;;;;;17.17;8.90;;;;;;;;;;5042447;28;20424;-45
2023/01/18 14:44:20;;;;;;;14.87;9.80;;;;;;;;;;5032322;28;20463;-44
2023/01/18 14:46:50;;;;;;;12.50;9.17;;;;;;;;;;5031335;28;20422;-45
2023/01/18 14:49:20;;;;;;;16.67;9.80;;;;;;;;;;5037411;28;20505;-44
2023/01/18 14:51:50;;;;;;;13.63;9.17;;;;;;;;;;5031283;28;20411;-45
2023/01/18 14:54:17;;;;;;;19.17;10.07;;;;;;;;;;5038207;28;20579;-45
2023/01/18 14:56:44;;;;;;;11.53;8.90;;;;;;;;;;5050556;28;20437;-45
2023/01/18 14:59:19;;;;;;;12.82;9.30;;;;;;;;;;5051451;28;20436;-45
2023/01/18 15:01:52;;;;;;;12.20;9.85;;;;;;;;;;5051185;28;20673;-45
2023/01/18 15:04:20;;;;;;;12.93;8.40;;;;;;;;;;5051098;28;20214;-44
2023/01/18 15:06:48;;;;;;;11.43;8.85;;;;;;;;;;5050955;28;20186;-44
2023/01/18 15:09:14;;;;;;;12.07;8.93;;;;;;;;;;5050825;28;20219;-44
2023/01/18 15:11:42;;;;;;;20.75;9.57;;;;;;;;;;5051033;28;20185;-44